.
WxDataArchive / Data Records for 2015-01-19
2015-01-18 January 2015 2015-01-20

Data Records for Monday, 19 January 2015

Time	Temp	Chill	HIndex	Humid	Dewpt	 Wind 	HiWind	WindDir	Rain 	Barom
-----	----	-----	------	-----	-----	------	------	-------	-----	-----
00:00	33.1	33.1	33.1	86	29.4	0	1	248	0.00	29.994 
00:05	33.1	33.1	33.1	86	29.4	0	1	248	0.00	29.994 
00:10	33.1	33.1	33.1	86	29.4	0	1	248	0.00	29.994 
00:15	33.1	33.1	33.1	86	29.4	0	0	---	0.00	29.994 
00:20	33.1	33.1	33.1	86	29.4	0	1	248	0.00	29.994 
00:25	33.1	33.1	33.1	87	29.7	0	0	---	0.00	29.994 
00:30	33.1	33.1	33.1	87	29.7	0	1	248	0.00	29.989 
00:35	33.1	33.1	33.1	87	29.7	0	1	248	0.00	29.989 
00:40	33.1	33.1	33.1	87	29.7	0	1	248	0.00	29.989 
00:45	33.1	33.1	33.1	87	29.7	0	0	---	0.00	29.986 
00:50	33.1	33.1	33.1	87	29.7	0	0	---	0.00	29.986 
00:55	33.1	33.1	33.1	87	29.7	0	1	248	0.00	29.986 
01:00	33.1	33.1	33.1	87	29.7	0	0	---	0.00	29.983 
01:05	33.1	33.1	33.1	87	29.7	0	1	248	0.00	29.983 
01:10	33.1	33.1	33.1	87	29.7	0	1	248	0.00	29.983 
01:15	33.1	33.1	33.1	87	29.7	0	0	---	0.00	29.983 
01:20	33.1	33.1	33.1	87	29.7	0	1	248	0.00	29.983 
01:25	33.1	33.1	33.1	87	29.7	0	1	248	0.00	29.983 
01:30	33.1	33.1	33.1	87	29.7	0	0	---	0.00	29.982 
01:35	33.1	33.1	33.1	87	29.7	0	1	248	0.00	29.982 
01:40	33.1	33.1	33.1	87	29.7	0	1	248	0.00	29.982 
01:45	33.1	33.1	33.1	87	29.7	0	1	248	0.00	29.982 
01:50	33.1	33.1	33.1	87	29.7	0	1	248	0.00	29.982 
01:55	33.1	33.1	33.1	87	29.7	0	1	248	0.00	29.982 
02:00	32.9	32.9	32.9	87	29.5	0	1	248	0.00	29.984 
02:05	32.9	32.9	32.9	87	29.5	0	1	248	0.00	29.984 
02:10	32.9	32.9	32.9	87	29.5	0	0	---	0.00	29.984 
02:15	32.8	32.8	32.8	87	29.4	0	1	248	0.00	29.989 
02:20	32.5	32.5	32.5	86	28.8	0	1	248	0.00	29.989 
02:25	32.4	32.4	32.4	86	28.7	0	0	---	0.00	29.989 
02:30	32.2	32.2	32.2	86	28.5	0	0	---	0.00	29.991 
02:35	31.9	31.9	31.9	87	28.5	0	0	---	0.00	29.991 
02:40	31.8	31.8	31.8	87	28.4	0	0	---	0.00	29.991 
02:45	31.5	31.5	31.5	87	28.1	0	0	---	0.00	29.990 
02:50	31.3	31.3	31.3	87	27.9	0	0	---	0.00	29.990 
02:55	31.0	31.0	31.0	87	27.6	0	0	---	0.00	29.990 
03:00	30.9	30.9	30.9	87	27.5	0	0	---	0.00	29.993 
03:05	30.7	30.7	30.7	88	27.6	0	0	---	0.00	29.993 
03:10	30.6	30.6	30.6	88	27.5	0	1	248	0.00	29.993 
03:15	30.4	30.4	30.4	88	27.3	0	0	---	0.00	29.994 
03:20	30.3	30.3	30.3	88	27.2	0	0	---	0.00	29.994 
03:25	30.1	30.1	30.1	88	27.0	0	0	---	0.00	29.994 
03:30	30.0	30.0	30.0	88	26.9	0	1	248	0.00	29.991 
03:35	29.8	29.8	29.8	88	26.7	0	0	---	0.00	29.991 
03:40	29.7	29.7	29.7	88	26.6	0	0	---	0.00	29.991 
03:45	29.4	29.4	29.4	89	26.6	0	0	---	0.00	29.989 
03:50	29.3	29.3	29.3	89	26.5	0	0	---	0.00	29.989 
03:55	29.1	29.1	29.1	89	26.3	0	0	---	0.00	29.989 
04:00	29.1	29.1	29.1	89	26.3	0	0	---	0.00	29.986 
04:05	29.0	29.0	29.0	89	26.2	0	0	---	0.00	29.986 
04:10	29.0	29.0	29.0	90	26.4	0	0	---	0.00	29.986 
04:15	29.0	29.0	29.0	90	26.4	0	0	---	0.00	29.989 
04:20	28.8	28.8	28.8	90	26.2	0	0	---	0.00	29.989 
04:25	28.7	28.7	28.7	90	26.1	0	0	---	0.00	29.989 
04:30	28.4	28.4	28.4	89	25.6	0	0	---	0.00	29.986 
04:35	28.2	28.2	28.2	90	25.7	0	0	---	0.00	29.986 
04:40	28.2	28.2	28.2	90	25.7	0	0	---	0.00	29.986 
04:45	28.1	28.1	28.1	90	25.6	0	0	---	0.00	29.983 
04:50	27.8	27.8	27.8	90	25.3	0	0	---	0.00	29.983 
04:55	27.6	27.6	27.6	90	25.1	0	0	---	0.00	29.983 
05:00	27.5	27.5	27.5	90	25.0	0	0	---	0.00	29.985 
05:05	27.3	27.3	27.3	90	24.8	0	0	---	0.00	29.985 
05:10	27.5	27.5	27.5	91	25.2	0	1	248	0.00	29.985 
05:15	27.5	27.5	27.5	91	25.2	0	0	---	0.00	29.990 
05:20	27.5	27.5	27.5	91	25.2	0	0	---	0.00	29.990 
05:25	27.6	27.6	27.6	91	25.3	0	0	---	0.00	29.990 
05:30	27.6	27.6	27.6	91	25.3	0	1	248	0.00	29.991 
05:35	27.8	27.8	27.8	91	25.5	0	0	---	0.00	29.991 
05:40	27.8	27.8	27.8	91	25.5	0	1	248	0.00	29.991 
05:45	27.8	27.8	27.8	91	25.5	0	0	---	0.00	29.993 
05:50	27.8	27.8	27.8	91	25.5	0	0	---	0.00	29.993 
05:55	27.8	27.8	27.8	91	25.5	0	0	---	0.00	29.993 
06:00	27.6	27.6	27.6	91	25.3	0	0	---	0.00	29.999 
06:05	27.6	27.6	27.6	91	25.3	0	0	---	0.00	29.999 
06:10	27.5	27.5	27.5	91	25.2	0	0	---	0.00	29.999 
06:15	27.5	27.5	27.5	92	25.5	0	0	---	0.00	29.998 
06:20	27.3	27.3	27.3	92	25.3	0	0	---	0.00	29.998 
06:25	27.2	27.2	27.2	91	24.9	0	0	---	0.00	29.998 
06:30	27.0	27.0	27.0	91	24.7	0	0	---	0.00	30.005 
06:35	26.9	26.9	26.9	92	24.9	0	0	---	0.00	30.005 
06:40	26.7	26.7	26.7	92	24.7	0	0	---	0.00	30.005 
06:45	26.6	26.6	26.6	92	24.6	0	0	---	0.00	30.008 
06:50	26.4	26.4	26.4	91	24.1	0	0	---	0.00	30.008 
06:55	26.3	26.3	26.3	92	24.3	0	0	---	0.00	30.008 
07:00	26.3	26.3	26.3	92	24.3	0	0	---	0.00	30.011 
07:05	26.3	26.3	26.3	92	24.3	0	0	---	0.00	30.011 
07:10	26.1	26.1	26.1	92	24.1	0	0	---	0.00	30.011 
07:15	25.8	25.8	25.8	92	23.8	0	0	---	0.00	30.011 
07:20	25.7	25.7	25.7	92	23.7	0	0	---	0.00	30.011 
07:25	25.6	25.6	25.6	91	23.3	0	0	---	0.00	30.011 
07:30	25.3	25.3	25.3	91	23.0	0	0	---	0.00	30.015 
07:35	25.1	25.1	25.1	91	22.9	0	0	---	0.00	30.015 
07:40	25.0	25.0	25.0	91	22.8	0	0	---	0.00	30.015 
07:45	24.7	24.7	24.7	91	22.5	0	0	---	0.00	30.016 
07:50	24.7	24.7	24.7	92	22.7	0	0	---	0.00	30.016 
07:55	24.5	24.5	24.5	92	22.5	0	0	---	0.00	30.016 
08:00	24.7	24.7	24.7	92	22.7	0	0	---	0.00	30.020 
08:05	24.7	24.7	24.7	92	22.7	0	0	---	0.00	30.020 
08:10	24.8	24.8	24.8	92	22.8	0	0	---	0.00	30.020 
08:15	24.8	24.8	24.8	92	22.8	0	0	---	0.00	30.026 
08:20	25.1	25.1	25.1	92	23.1	0	0	---	0.00	30.026 
08:25	25.3	25.3	25.3	92	23.3	0	0	---	0.00	30.026 
08:30	25.4	25.4	25.4	92	23.4	0	0	---	0.00	30.027 
08:35	25.6	25.6	25.6	92	23.6	0	0	---	0.00	30.027 
08:40	25.8	25.8	25.8	92	23.8	0	0	---	0.00	30.027 
08:45	26.3	26.3	26.3	93	24.6	0	0	---	0.00	30.023 
08:50	26.7	26.7	26.7	93	25.0	0	0	---	0.00	30.023 
08:55	27.2	27.2	27.2	93	25.4	0	0	---	0.00	30.023 
09:00	27.5	27.5	27.5	93	25.7	0	1	248	0.00	30.023 
09:05	27.8	27.8	27.8	93	26.0	0	1	248	0.00	30.023 
09:10	27.8	27.8	27.8	93	26.0	0	1	248	0.00	30.023 
09:15	27.9	27.9	27.9	93	26.1	0	1	248	0.00	30.025 
09:20	27.9	27.9	27.9	93	26.1	0	1	248	0.00	30.025 
09:25	27.9	27.9	27.9	93	26.1	0	1	248	0.00	30.025 
09:30	27.9	27.9	27.9	93	26.1	0	1	248	0.00	30.027 
09:35	28.1	28.1	28.1	93	26.3	0	0	---	0.00	30.027 
09:40	28.1	28.1	28.1	93	26.3	0	1	248	0.00	30.027 
09:45	28.2	28.2	28.2	93	26.4	0	1	248	0.00	30.029 
09:50	28.4	28.4	28.4	93	26.6	0	1	248	0.00	30.029 
09:55	28.4	28.4	28.4	93	26.6	0	1	248	0.00	30.029 
10:00	28.4	28.4	28.4	93	26.6	0	1	248	0.00	30.035 
10:05	28.4	28.4	28.4	93	26.6	0	1	248	0.00	30.035 
10:10	28.4	28.4	28.4	93	26.6	0	1	248	0.00	30.035 
10:15	28.5	28.5	28.5	93	26.7	0	1	248	0.00	30.034 
10:20	28.7	28.7	28.7	93	26.9	0	1	248	0.00	30.034 
10:25	28.8	28.8	28.8	93	27.0	0	1	248	0.00	30.034 
10:30	28.8	28.8	28.8	93	27.0	0	1	248	0.00	30.034 
10:35	29.0	29.0	29.0	93	27.2	0	1	248	0.00	30.034 
10:40	29.1	29.1	29.1	93	27.3	0	0	---	0.00	30.034 
10:45	29.3	29.3	29.3	93	27.5	0	1	248	0.00	30.035 
10:50	29.4	29.4	29.4	94	27.9	0	0	---	0.00	30.035 
10:55	29.5	29.5	29.5	94	28.0	0	0	---	0.00	30.035 
11:00	29.8	29.8	29.8	94	28.3	0	1	248	0.00	30.034 
11:05	29.8	29.8	29.8	94	28.3	0	0	---	0.00	30.034 
11:10	30.0	30.0	30.0	94	28.5	0	1	248	0.00	30.034 
11:15	30.1	30.1	30.1	94	28.6	0	0	---	0.00	30.029 
11:20	30.6	30.6	30.6	94	29.1	0	1	248	0.00	30.029 
11:25	30.7	30.7	30.7	94	29.2	0	1	248	0.00	30.029 
11:30	30.7	30.7	30.7	94	29.2	0	1	248	0.00	30.030 
11:35	30.6	30.6	30.6	94	29.1	0	1	248	0.00	30.030 
11:40	30.7	30.7	30.7	94	29.2	0	2	248	0.00	30.030 
11:45	30.6	30.6	30.6	94	29.1	0	1	248	0.00	30.023 
11:50	30.7	30.7	30.7	94	29.2	0	1	248	0.00	30.023 
11:55	31.0	31.0	31.0	94	29.5	0	1	248	0.00	30.023 
12:00	31.2	31.2	31.2	94	29.7	0	1	248	0.00	30.020 
12:05	31.3	31.3	31.3	94	29.8	0	1	248	0.00	30.020 
12:10	31.2	31.2	31.2	94	29.7	0	1	248	0.00	30.020 
12:15	31.5	31.5	31.5	94	30.0	0	1	248	0.00	30.012 
12:20	31.5	31.5	31.5	94	30.0	0	3	270	0.00	30.012 
12:25	31.8	31.8	31.8	94	30.3	0	1	270	0.00	30.012 
12:30	31.8	31.8	31.8	94	30.3	0	1	270	0.00	30.007 
12:35	31.9	31.9	31.9	94	30.4	0	2	270	0.00	30.007 
12:40	32.2	32.2	32.2	94	30.7	0	2	270	0.00	30.007 
12:45	32.2	32.2	32.2	94	30.7	0	2	270	0.00	30.003 
12:50	32.7	32.7	32.7	94	31.2	0	2	270	0.00	30.003 
12:55	32.8	32.8	32.8	93	31.0	0	2	270	0.00	30.003 
13:00	32.9	32.9	32.9	93	31.1	0	1	270	0.00	29.989 
13:05	33.2	33.2	33.2	93	31.4	0	2	270	0.00	29.989 
13:10	33.5	33.5	33.5	93	31.7	0	1	270	0.00	29.989 
13:15	33.8	33.8	33.8	92	31.7	0	2	270	0.00	29.987 
13:20	34.1	34.1	34.1	92	32.0	0	2	270	0.00	29.987 
13:25	34.6	34.6	34.6	92	32.5	0	2	270	0.00	29.987 
13:30	34.9	34.9	34.9	91	32.5	0	2	270	0.00	29.977 
13:35	35.2	35.2	35.2	90	32.6	0	1	270	0.00	29.977 
13:40	35.5	35.5	35.5	89	32.6	0	1	270	0.00	29.977 
13:45	35.8	35.8	35.8	88	32.6	0	1	270	0.00	29.971 
13:50	35.8	35.8	35.8	86	32.0	0	2	270	0.00	29.971 
13:55	35.9	35.9	35.9	86	32.1	0	2	270	0.00	29.971 
14:00	36.2	36.2	36.2	85	32.1	0	1	270	0.00	29.963 
14:05	36.5	36.5	36.5	84	32.1	0	2	270	0.00	29.963 
14:10	36.8	36.8	36.8	84	32.4	0	1	270	0.00	29.963 
14:15	37.0	37.0	37.0	82	32.0	0	2	270	0.00	29.959 
14:20	37.3	37.3	37.3	82	32.3	0	1	270	0.00	29.959 
14:25	37.6	37.6	37.6	81	32.3	0	1	270	0.00	29.959 
14:30	38.0	38.0	38.0	81	32.7	0	2	270	0.00	29.955 
14:35	38.3	38.3	38.3	79	32.4	0	1	270	0.00	29.955 
14:40	38.5	38.5	38.5	78	32.2	0	1	270	0.00	29.955 
14:45	38.8	38.8	38.8	77	32.2	0	2	270	0.00	29.946 
14:50	38.9	38.9	38.9	76	32.0	1	3	270	0.00	29.946 
14:55	39.1	39.1	39.1	75	31.9	1	4	292	0.00	29.946 
15:00	39.3	39.3	39.3	73	31.4	0	2	292	0.00	29.946 
15:05	39.2	39.2	39.2	72	30.9	1	3	292	0.00	29.946 
15:10	39.2	39.2	39.2	72	30.9	0	3	292	0.00	29.946 
15:15	39.2	39.2	39.2	72	30.9	0	3	292	0.00	29.947 
15:20	39.3	39.3	39.3	71	30.7	0	3	292	0.00	29.947 
15:25	39.3	39.3	39.3	70	30.3	1	3	292	0.00	29.947 
15:30	39.2	39.2	39.2	70	30.3	0	2	292	0.00	29.953 
15:35	39.1	39.1	39.1	70	30.2	0	2	292	0.00	29.953 
15:40	39.1	39.1	39.1	70	30.2	0	1	292	0.00	29.953 
15:45	38.9	38.9	38.9	71	30.3	0	1	292	0.00	29.953 
15:50	39.2	39.2	39.2	71	30.6	0	1	292	0.00	29.953 
15:55	39.2	39.2	39.2	70	30.3	0	1	292	0.00	29.953 
16:00	39.1	39.1	39.1	70	30.2	0	1	292	0.00	29.953 
16:05	38.9	38.9	38.9	71	30.3	0	1	292	0.00	29.953 
16:10	38.8	38.8	38.8	71	30.2	0	2	292	0.00	29.953 
16:15	38.5	38.5	38.5	71	29.9	0	1	292	0.00	29.955 
16:20	38.5	38.5	38.5	71	29.9	0	1	292	0.00	29.955 
16:25	38.5	38.5	38.5	71	29.9	0	1	292	0.00	29.955 
16:30	38.5	38.5	38.5	72	30.3	0	1	292	0.00	29.955 
16:35	38.3	38.3	38.3	72	30.1	0	0	---	0.00	29.955 
16:40	38.3	38.3	38.3	72	30.1	0	0	---	0.00	29.955 
16:45	38.2	38.2	38.2	72	30.0	0	0	---	0.00	29.949 
16:50	38.0	38.0	38.0	72	29.8	0	0	---	0.00	29.949 
16:55	38.0	38.0	38.0	72	29.8	0	0	---	0.00	29.949 
17:00	37.9	37.9	37.9	72	29.7	0	0	---	0.00	29.946 
17:05	37.8	37.8	37.8	73	29.9	0	0	---	0.00	29.946 
17:10	37.6	37.6	37.6	73	29.7	0	0	---	0.00	29.946 
17:15	37.6	37.6	37.6	73	29.7	0	0	---	0.00	29.951 
17:20	37.5	37.5	37.5	74	30.0	0	0	---	0.00	29.951 
17:25	37.3	37.3	37.3	75	30.1	0	1	292	0.00	29.951 
17:30	37.2	37.2	37.2	76	30.3	0	0	---	0.00	29.946 
17:35	37.0	37.0	37.0	77	30.5	0	0	---	0.00	29.946 
17:40	36.8	36.8	36.8	78	30.6	0	0	---	0.00	29.946 
17:45	36.6	36.6	36.6	78	30.4	0	0	---	0.00	29.947 
17:50	36.5	36.5	36.5	79	30.6	0	0	---	0.00	29.947 
17:55	36.2	36.2	36.2	79	30.3	0	0	---	0.00	29.947 
18:00	36.0	36.0	36.0	79	30.1	0	0	---	0.00	29.946 
18:05	35.9	35.9	35.9	80	30.3	0	0	---	0.00	29.946 
18:10	35.8	35.8	35.8	80	30.2	0	0	---	0.00	29.946 
18:15	35.6	35.6	35.6	81	30.4	0	0	---	0.00	29.953 
18:20	35.5	35.5	35.5	81	30.3	0	0	---	0.00	29.953 
18:25	35.5	35.5	35.5	81	30.3	0	0	---	0.00	29.953 
18:30	35.3	35.3	35.3	82	30.4	0	0	---	0.00	29.964 
18:35	35.3	35.3	35.3	82	30.4	0	0	---	0.00	29.964 
18:40	35.2	35.2	35.2	82	30.3	0	0	---	0.00	29.964 
18:45	35.0	35.0	35.0	82	30.1	0	0	---	0.00	29.962 
18:50	34.9	34.9	34.9	82	30.0	0	0	---	0.00	29.962 
18:55	34.7	34.7	34.7	82	29.8	0	0	---	0.00	29.962 
19:00	34.7	34.7	34.7	83	30.1	0	0	---	0.00	29.961 
19:05	34.6	34.6	34.6	83	30.0	0	0	---	0.00	29.961 
19:10	34.6	34.6	34.6	83	30.0	0	0	---	0.00	29.961 
19:15	34.4	34.4	34.4	84	30.1	0	0	---	0.00	29.966 
19:20	34.4	34.4	34.4	84	30.1	0	0	---	0.00	29.966 
19:25	34.3	34.3	34.3	84	30.0	0	0	---	0.00	29.966 
19:30	34.3	34.3	34.3	84	30.0	0	0	---	0.00	29.965 
19:35	34.3	34.3	34.3	84	30.0	0	0	---	0.00	29.965 
19:40	34.1	34.1	34.1	85	30.1	0	0	---	0.00	29.965 
19:45	34.1	34.1	34.1	85	30.1	0	0	---	0.00	29.972 
19:50	34.1	34.1	34.1	85	30.1	0	0	---	0.00	29.972 
19:55	34.1	34.1	34.1	85	30.1	0	0	---	0.00	29.972 
20:00	34.0	34.0	34.0	85	30.0	0	0	---	0.00	29.981 
20:05	34.0	34.0	34.0	86	30.3	0	0	---	0.00	29.981 
20:10	34.0	34.0	34.0	86	30.3	0	0	---	0.00	29.981 
20:15	34.0	34.0	34.0	86	30.3	0	0	---	0.00	29.968 
20:20	34.0	34.0	34.0	86	30.3	0	0	---	0.00	29.968 
20:25	33.8	33.8	33.8	86	30.1	0	0	---	0.00	29.968 
20:30	33.8	33.8	33.8	86	30.1	0	0	---	0.00	29.962 
20:35	33.8	33.8	33.8	87	30.3	0	0	---	0.00	29.962 
20:40	33.7	33.7	33.7	87	30.3	0	0	---	0.00	29.962 
20:45	33.5	33.5	33.5	87	30.1	0	0	---	0.00	29.950 
20:50	33.5	33.5	33.5	87	30.1	0	0	---	0.00	29.950 
20:55	33.4	33.4	33.4	87	30.0	0	0	---	0.00	29.950 
21:00	33.4	33.4	33.4	87	30.0	0	0	---	0.00	29.948 
21:05	33.4	33.4	33.4	87	30.0	0	0	---	0.00	29.948 
21:10	33.4	33.4	33.4	87	30.0	0	0	---	0.00	29.948 
21:15	33.4	33.4	33.4	87	30.0	0	0	---	0.00	29.949 
21:20	33.4	33.4	33.4	88	30.2	0	0	---	0.00	29.949 
21:25	33.4	33.4	33.4	88	30.2	0	0	---	0.00	29.949 
21:30	33.4	33.4	33.4	88	30.2	0	0	---	0.00	29.950 
21:35	33.4	33.4	33.4	88	30.2	0	0	---	0.00	29.950 
21:40	33.4	33.4	33.4	88	30.2	0	0	---	0.00	29.950 
21:45	33.4	33.4	33.4	88	30.2	0	0	---	0.00	29.954 
21:50	33.4	33.4	33.4	88	30.2	0	0	---	0.00	29.954 
21:55	33.4	33.4	33.4	88	30.2	0	0	---	0.00	29.954 
22:00	33.5	33.5	33.5	88	30.3	0	0	---	0.00	29.957 
22:05	33.5	33.5	33.5	88	30.3	0	0	---	0.00	29.957 
22:10	33.5	33.5	33.5	88	30.3	0	0	---	0.00	29.957 
22:15	33.4	33.4	33.4	88	30.2	0	0	---	0.00	29.955 
22:20	33.4	33.4	33.4	88	30.2	0	0	---	0.00	29.955 
22:25	33.4	33.4	33.4	88	30.2	0	0	---	0.00	29.955 
22:30	33.4	33.4	33.4	88	30.2	0	0	---	0.00	29.954 
22:35	33.2	33.2	33.2	88	30.0	0	0	---	0.00	29.954 
22:40	33.2	33.2	33.2	88	30.0	0	0	---	0.00	29.954 
22:45	33.1	33.1	33.1	88	29.9	0	0	---	0.00	29.960 
22:50	33.1	33.1	33.1	88	29.9	0	0	---	0.00	29.960 
22:55	33.2	33.2	33.2	88	30.0	0	0	---	0.00	29.960 
23:00	33.2	33.2	33.2	88	30.0	0	0	---	0.00	29.962 
23:05	33.2	33.2	33.2	88	30.0	0	0	---	0.00	29.962 
23:10	33.1	33.1	33.1	88	29.9	0	0	---	0.00	29.962 
23:15	33.1	33.1	33.1	88	29.9	0	0	---	0.00	29.958 
23:20	32.9	32.9	32.9	88	29.7	0	0	---	0.00	29.958 
23:25	32.9	32.9	32.9	88	29.7	0	0	---	0.00	29.958 
23:30	32.8	32.8	32.8	89	29.9	0	0	---	0.00	29.941 
23:35	32.8	32.8	32.8	89	29.9	0	0	---	0.00	29.941 
23:40	32.8	32.8	32.8	89	29.9	0	0	---	0.00	29.941 
23:45	32.8	32.8	32.8	89	29.9	0	0	---	0.00	29.944 
23:50	32.9	32.9	32.9	89	30.0	0	0	---	0.00	29.944 
23:55	32.9	32.9	32.9	89	30.0	0	0	---	0.00	29.944 

CoCoRaHS
IN-AL-39
A2 Web Hosting
Creative Commons License
GoDaddy
search engine by freefind advanced

loaded 2018-11-13 21:20:47 • last modified 2010-11-18 10:43:29
Privacy PolicyDisclaimer
• wx.awcolley.com is powered by PmWiki v.2002016 •
• all content (unless otherwise noted) © 2018 A W Colley